sensor_id;sensor_type;location;lat;lon;timestamp;pressure;altitude;pressure_sealevel;temperature;humidity
2549;BME280;1284;53.520;10.248;2023-04-22T00:00:04;100619.13;;;14.77;47.30
2549;BME280;1284;53.520;10.248;2023-04-22T00:02:30;100625.69;;;14.69;47.41
2549;BME280;1284;53.520;10.248;2023-04-22T00:04:56;100628.44;;;14.76;47.51
2549;BME280;1284;53.520;10.248;2023-04-22T00:07:22;100617.94;;;14.68;47.79
2549;BME280;1284;53.520;10.248;2023-04-22T00:09:48;100611.38;;;14.65;47.71
2549;BME280;1284;53.520;10.248;2023-04-22T00:12:13;100604.00;;;14.69;47.59
2549;BME280;1284;53.520;10.248;2023-04-22T00:14:39;100601.69;;;14.68;47.91
2549;BME280;1284;53.520;10.248;2023-04-22T00:17:05;100611.78;;;14.67;47.76
2549;BME280;1284;53.520;10.248;2023-04-22T00:19:33;100587.38;;;14.67;47.62
2549;BME280;1284;53.520;10.248;2023-04-22T00:22:02;100598.97;;;14.61;47.80
2549;BME280;1284;53.520;10.248;2023-04-22T00:24:28;100585.03;;;14.69;47.84
2549;BME280;1284;53.520;10.248;2023-04-22T00:26:54;100598.97;;;14.64;48.08
2549;BME280;1284;53.520;10.248;2023-04-22T00:29:19;100581.13;;;14.49;48.16
2549;BME280;1284;53.520;10.248;2023-04-22T00:31:45;100571.03;;;14.39;48.11
2549;BME280;1284;53.520;10.248;2023-04-22T00:34:10;100576.03;;;14.33;48.54
2549;BME280;1284;53.520;10.248;2023-04-22T00:36:36;100571.81;;;14.50;48.58
2549;BME280;1284;53.520;10.248;2023-04-22T00:39:04;100561.72;;;14.36;48.62
2549;BME280;1284;53.520;10.248;2023-04-22T00:41:30;100561.34;;;14.38;48.31
2549;BME280;1284;53.520;10.248;2023-04-22T00:43:57;100571.03;;;14.46;48.47
2549;BME280;1284;53.520;10.248;2023-04-22T00:46:24;100569.44;;;14.34;48.70
2549;BME280;1284;53.520;10.248;2023-04-22T00:48:49;100562.78;;;14.21;48.53
2549;BME280;1284;53.520;10.248;2023-04-22T00:51:15;100562.31;;;13.98;49.44
2549;BME280;1284;53.520;10.248;2023-04-22T00:53:40;100574.00;;;14.16;49.06
2549;BME280;1284;53.520;10.248;2023-04-22T00:56:06;100556.63;;;14.24;49.25
2549;BME280;1284;53.520;10.248;2023-04-22T00:58:32;100556.22;;;14.22;49.10
2549;BME280;1284;53.520;10.248;2023-04-22T01:00:57;100558.16;;;14.25;49.25
2549;BME280;1284;53.520;10.248;2023-04-22T01:03:23;100552.03;;;14.28;48.90
2549;BME280;1284;53.520;10.248;2023-04-22T01:05:51;100549.16;;;14.04;49.36
2549;BME280;1284;53.520;10.248;2023-04-22T01:08:16;100556.22;;;14.22;49.38
2549;BME280;1284;53.520;10.248;2023-04-22T01:10:42;100555.44;;;14.18;49.55
2549;BME280;1284;53.520;10.248;2023-04-22T01:13:08;100553.47;;;14.08;49.41
2549;BME280;1284;53.520;10.248;2023-04-22T01:15:34;100552.69;;;14.11;49.51
2549;BME280;1284;53.520;10.248;2023-04-22T01:18:00;100541.81;;;14.01;49.38
2549;BME280;1284;53.520;10.248;2023-04-22T01:20:29;100546.53;;;14.18;49.57
2549;BME280;1284;53.520;10.248;2023-04-22T01:22:55;100536.91;;;14.27;49.52
2549;BME280;1284;53.520;10.248;2023-04-22T01:25:26;100547.41;;;14.43;49.45
2549;BME280;1284;53.520;10.248;2023-04-22T01:27:52;100546.63;;;14.35;49.11
2549;BME280;1284;53.520;10.248;2023-04-22T01:30:17;100544.56;;;14.08;49.94
2549;BME280;1284;53.520;10.248;2023-04-22T01:32:43;100537.13;;;13.94;50.61
2549;BME280;1284;53.520;10.248;2023-04-22T01:35:12;100541.03;;;14.00;50.40
2549;BME280;1284;53.520;10.248;2023-04-22T01:37:37;100528.91;;;13.73;50.64
2549;BME280;1284;53.520;10.248;2023-04-22T01:40:04;100536.34;;;13.90;50.37
2549;BME280;1284;53.520;10.248;2023-04-22T01:42:29;100528.28;;;13.97;50.61
2549;BME280;1284;53.520;10.248;2023-04-22T01:44:58;100524.75;;;13.90;50.59
2549;BME280;1284;53.520;10.248;2023-04-22T01:47:24;100531.38;;;13.99;50.18
2549;BME280;1284;53.520;10.248;2023-04-22T01:49:50;100520.09;;;13.87;50.82
2549;BME280;1284;53.520;10.248;2023-04-22T01:52:18;100524.66;;;13.72;51.05
2549;BME280;1284;53.520;10.248;2023-04-22T01:54:44;100520.81;;;13.80;51.27
2549;BME280;1284;53.520;10.248;2023-04-22T01:57:12;100515.47;;;13.94;50.46
2549;BME280;1284;53.520;10.248;2023-04-22T01:59:39;100515.13;;;14.03;50.52
2549;BME280;1284;53.520;10.248;2023-04-22T02:02:04;100505.44;;;13.91;50.70
2549;BME280;1284;53.520;10.248;2023-04-22T02:04:30;100515.50;;;13.98;51.01
2549;BME280;1284;53.520;10.248;2023-04-22T02:06:56;100506.63;;;14.04;50.96
2549;BME280;1284;53.520;10.248;2023-04-22T02:09:21;100502.72;;;13.98;50.86
2549;BME280;1284;53.520;10.248;2023-04-22T02:11:48;100508.13;;;13.88;50.94
2549;BME280;1284;53.520;10.248;2023-04-22T02:14:13;100503.13;;;13.93;50.66
2549;BME280;1284;53.520;10.248;2023-04-22T02:16:42;100499.22;;;13.94;50.74
2549;BME280;1284;53.520;10.248;2023-04-22T02:19:08;100489.88;;;13.74;51.45
2549;BME280;1284;53.520;10.248;2023-04-22T02:21:33;100490.19;;;13.62;52.01
2549;BME280;1284;53.520;10.248;2023-04-22T02:23:59;100488.06;;;13.24;52.32
2549;BME280;1284;53.520;10.248;2023-04-22T02:26:27;100490.50;;;13.46;52.28
2549;BME280;1284;53.520;10.248;2023-04-22T02:28:52;100491.41;;;13.75;51.95
2549;BME280;1284;53.520;10.248;2023-04-22T02:31:18;100489.13;;;13.81;51.46
2549;BME280;1284;53.520;10.248;2023-04-22T02:33:43;100483.31;;;13.79;52.17
2549;BME280;1284;53.520;10.248;2023-04-22T02:36:09;100480.22;;;13.77;51.60
2549;BME280;1284;53.520;10.248;2023-04-22T02:38:37;100487.94;;;13.78;52.14
2549;BME280;1284;53.520;10.248;2023-04-22T02:41:06;100474.81;;;13.80;52.11
2549;BME280;1284;53.520;10.248;2023-04-22T02:43:31;100477.81;;;13.61;52.06
2549;BME280;1284;53.520;10.248;2023-04-22T02:45:56;100470.16;;;13.74;51.86
2549;BME280;1284;53.520;10.248;2023-04-22T02:48:22;100465.53;;;13.78;52.14
2549;BME280;1284;53.520;10.248;2023-04-22T02:50:48;100457.81;;;13.76;52.49
2549;BME280;1284;53.520;10.248;2023-04-22T02:53:13;100463.16;;;13.62;52.23
2549;BME280;1284;53.520;10.248;2023-04-22T02:55:40;100451.09;;;13.49;52.80
2549;BME280;1284;53.520;10.248;2023-04-22T02:58:06;100453.84;;;13.56;52.68
2549;BME280;1284;53.520;10.248;2023-04-22T03:00:31;100449.16;;;13.53;52.76
2549;BME280;1284;53.520;10.248;2023-04-22T03:02:57;100448.03;;;13.61;52.76
2549;BME280;1284;53.520;10.248;2023-04-22T03:05:28;100438.31;;;13.49;52.69
2549;BME280;1284;53.520;10.248;2023-04-22T03:07:54;100446.84;;;13.51;53.00
2549;BME280;1284;53.520;10.248;2023-04-22T03:10:20;100444.91;;;13.45;53.26
2549;BME280;1284;53.520;10.248;2023-04-22T03:12:45;100434.50;;;13.57;52.87
2549;BME280;1284;53.520;10.248;2023-04-22T03:15:11;100444.59;;;13.64;52.88
2549;BME280;1284;53.520;10.248;2023-04-22T03:17:37;100438.41;;;13.64;52.98
2549;BME280;1284;53.520;10.248;2023-04-22T03:20:07;100434.50;;;13.61;53.10
2549;BME280;1284;53.520;10.248;2023-04-22T03:22:33;100426.78;;;13.56;52.85
2549;BME280;1284;53.520;10.248;2023-04-22T03:25:00;100432.22;;;13.63;53.13
2549;BME280;1284;53.520;10.248;2023-04-22T03:27:27;100426.78;;;13.56;53.08
2549;BME280;1284;53.520;10.248;2023-04-22T03:29:53;100432.19;;;13.52;53.72
2549;BME280;1284;53.520;10.248;2023-04-22T03:32:18;100430.19;;;13.46;53.61
2549;BME280;1284;53.520;10.248;2023-04-22T03:34:45;100417.06;;;13.48;53.89
2549;BME280;1284;53.520;10.248;2023-04-22T03:37:11;100410.47;;;13.45;53.45
2549;BME280;1284;53.520;10.248;2023-04-22T03:39:37;100419.03;;;13.54;53.71
2549;BME280;1284;53.520;10.248;2023-04-22T03:42:03;100423.25;;;13.48;53.96
2549;BME280;1284;53.520;10.248;2023-04-22T03:44:29;100418.28;;;13.57;53.91
2549;BME280;1284;53.520;10.248;2023-04-22T03:46:55;100419.28;;;13.25;54.09
2549;BME280;1284;53.520;10.248;2023-04-22T03:49:23;100426.22;;;13.26;54.05
2549;BME280;1284;53.520;10.248;2023-04-22T03:51:49;100418.88;;;13.23;54.37
2549;BME280;1284;53.520;10.248;2023-04-22T03:54:18;100421.28;;;13.38;54.60
2549;BME280;1284;53.520;10.248;2023-04-22T03:56:49;100423.59;;;13.43;54.18
2549;BME280;1284;53.520;10.248;2023-04-22T03:59:16;100413.19;;;13.42;54.31
2549;BME280;1284;53.520;10.248;2023-04-22T04:01:45;100409.66;;;13.31;54.25
2549;BME280;1284;53.520;10.248;2023-04-22T04:04:11;100411.97;;;13.32;54.50
2549;BME280;1284;53.520;10.248;2023-04-22T04:06:43;100403.44;;;13.27;54.70
2549;BME280;1284;53.520;10.248;2023-04-22T04:09:08;100404.97;;;13.28;54.33
2549;BME280;1284;53.520;10.248;2023-04-22T04:11:34;100398.06;;;13.34;54.94
2549;BME280;1284;53.520;10.248;2023-04-22T04:14:00;100404.31;;;13.45;54.62
2549;BME280;1284;53.520;10.248;2023-04-22T04:16:30;100393.84;;;13.40;55.02
2549;BME280;1284;53.520;10.248;2023-04-22T04:19:04;100392.66;;;13.34;54.83
2549;BME280;1284;53.520;10.248;2023-04-22T04:21:32;100398.06;;;13.34;54.97
2549;BME280;1284;53.520;10.248;2023-04-22T04:23:58;100390.34;;;13.36;54.89
2549;BME280;1284;53.520;10.248;2023-04-22T04:26:28;100393.06;;;13.39;55.03
2549;BME280;1284;53.520;10.248;2023-04-22T04:29:01;100391.47;;;13.28;55.32
2549;BME280;1284;53.520;10.248;2023-04-22T04:31:27;100397.63;;;13.25;55.47
2549;BME280;1284;53.520;10.248;2023-04-22T04:33:55;100395.75;;;13.32;55.63
2549;BME280;1284;53.520;10.248;2023-04-22T04:36:22;100392.63;;;13.30;55.42
2549;BME280;1284;53.520;10.248;2023-04-22T04:38:55;100388.41;;;13.29;55.45
2549;BME280;1284;53.520;10.248;2023-04-22T04:41:21;100382.63;;;13.38;55.72
2549;BME280;1284;53.520;10.248;2023-04-22T04:43:48;100381.88;;;13.37;55.34
2549;BME280;1284;53.520;10.248;2023-04-22T04:46:23;100383.38;;;13.31;55.53
2549;BME280;1284;53.520;10.248;2023-04-22T04:48:49;100365.59;;;13.34;55.28
2549;BME280;1284;53.520;10.248;2023-04-22T04:51:16;100372.97;;;13.37;55.71
2549;BME280;1284;53.520;10.248;2023-04-22T04:53:48;100373.78;;;13.41;55.12
2549;BME280;1284;53.520;10.248;2023-04-22T04:56:14;100367.19;;;13.45;55.50
2549;BME280;1284;53.520;10.248;2023-04-22T04:58:40;100375.56;;;13.12;56.61
2549;BME280;1284;53.520;10.248;2023-04-22T05:01:14;100374.03;;;13.18;56.15
2549;BME280;1284;53.520;10.248;2023-04-22T05:03:41;100369.47;;;13.29;56.40
2549;BME280;1284;53.520;10.248;2023-04-22T05:06:07;100370.66;;;13.39;55.78
2549;BME280;1284;53.520;10.248;2023-04-22T05:08:34;100371.47;;;13.43;56.16
2549;BME280;1284;53.520;10.248;2023-04-22T05:11:05;100366.06;;;13.57;55.29
2549;BME280;1284;53.520;10.248;2023-04-22T05:13:31;100367.25;;;13.52;55.64
2549;BME280;1284;53.520;10.248;2023-04-22T05:15:57;100369.91;;;13.45;56.25
2549;BME280;1284;53.520;10.248;2023-04-22T05:18:24;100381.19;;;13.62;55.67
2549;BME280;1284;53.520;10.248;2023-04-22T05:20:50;100376.94;;;13.68;55.93
2549;BME280;1284;53.520;10.248;2023-04-22T05:23:17;100381.25;;;13.86;54.87
2549;BME280;1284;53.520;10.248;2023-04-22T05:25:44;100366.53;;;13.73;55.35
2549;BME280;1284;53.520;10.248;2023-04-22T05:28:11;100374.69;;;13.84;55.38
2549;BME280;1284;53.520;10.248;2023-04-22T05:30:48;100360.38;;;13.94;54.79
2549;BME280;1284;53.520;10.248;2023-04-22T05:33:13;100369.66;;;13.96;55.09
2549;BME280;1284;53.520;10.248;2023-04-22T05:35:39;100371.25;;;14.08;54.79
2549;BME280;1284;53.520;10.248;2023-04-22T05:38:06;100372.41;;;14.14;54.82
2549;BME280;1284;53.520;10.248;2023-04-22T05:40:33;100368.16;;;14.23;54.83
2549;BME280;1284;53.520;10.248;2023-04-22T05:42:59;100358.13;;;14.34;54.30
2549;BME280;1284;53.520;10.248;2023-04-22T05:45:25;100346.91;;;14.43;54.05
2549;BME280;1284;53.520;10.248;2023-04-22T05:47:51;100348.84;;;14.57;54.35
2549;BME280;1284;53.520;10.248;2023-04-22T05:50:17;100359.66;;;14.78;53.76
2549;BME280;1284;53.520;10.248;2023-04-22T05:52:51;100360.84;;;14.66;53.48
2549;BME280;1284;53.520;10.248;2023-04-22T05:55:17;100365.81;;;14.96;53.26
2549;BME280;1284;53.520;10.248;2023-04-22T05:57:43;100363.81;;;15.14;53.04
2549;BME280;1284;53.520;10.248;2023-04-22T06:00:41;100356.44;;;15.21;52.54
2549;BME280;1284;53.520;10.248;2023-04-22T06:03:22;100369.59;;;15.30;52.54
2549;BME280;1284;53.520;10.248;2023-04-22T06:05:48;100353.34;;;15.16;52.72
2549;BME280;1284;53.520;10.248;2023-04-22T06:08:13;100355.22;;;15.36;52.47
2549;BME280;1284;53.520;10.248;2023-04-22T06:10:41;100353.97;;;15.66;52.15
2549;BME280;1284;53.520;10.248;2023-04-22T06:13:07;100354.69;;;15.73;52.03
2549;BME280;1284;53.520;10.248;2023-04-22T06:15:34;100346.13;;;15.78;52.39
2549;BME280;1284;53.520;10.248;2023-04-22T06:18:00;100350.28;;;15.93;52.25
2549;BME280;1284;53.520;10.248;2023-04-22T06:20:26;100348.25;;;16.11;51.62
2549;BME280;1284;53.520;10.248;2023-04-22T06:22:51;100362.50;;;16.22;51.50
2549;BME280;1284;53.520;10.248;2023-04-22T06:25:18;100362.81;;;16.35;50.38
2549;BME280;1284;53.520;10.248;2023-04-22T06:27:43;100349.72;;;16.19;51.11
2549;BME280;1284;53.520;10.248;2023-04-22T06:30:10;100345.41;;;16.22;50.80
2549;BME280;1284;53.520;10.248;2023-04-22T06:32:36;100347.63;;;16.38;50.59
2549;BME280;1284;53.520;10.248;2023-04-22T06:35:02;100347.59;;;16.48;51.00
2549;BME280;1284;53.520;10.248;2023-04-22T06:37:28;100350.94;;;16.66;51.11
2549;BME280;1284;53.520;10.248;2023-04-22T06:39:53;100347.66;;;16.82;50.85
2549;BME280;1284;53.520;10.248;2023-04-22T06:42:41;100342.84;;;16.96;49.53
2549;BME280;1284;53.520;10.248;2023-04-22T06:45:45;100343.16;;;17.02;51.00
2549;BME280;1284;53.520;10.248;2023-04-22T06:48:23;100345.69;;;17.20;50.44
2549;BME280;1284;53.520;10.248;2023-04-22T06:51:07;100340.38;;;17.39;50.18
2549;BME280;1284;53.520;10.248;2023-04-22T06:53:32;100347.25;;;17.21;50.06
2549;BME280;1284;53.520;10.248;2023-04-22T06:55:57;100350.66;;;17.58;49.49
2549;BME280;1284;53.520;10.248;2023-04-22T06:58:23;100348.13;;;17.74;48.49
2549;BME280;1284;53.520;10.248;2023-04-22T07:00:48;100342.63;;;17.78;48.64
2549;BME280;1284;53.520;10.248;2023-04-22T07:03:14;100355.56;;;17.97;48.44
2549;BME280;1284;53.520;10.248;2023-04-22T07:05:39;100349.84;;;18.15;48.61
2549;BME280;1284;53.520;10.248;2023-04-22T07:08:07;100349.38;;;18.20;48.73
2549;BME280;1284;53.520;10.248;2023-04-22T07:10:32;100341.97;;;18.20;48.18
2549;BME280;1284;53.520;10.248;2023-04-22T07:13:24;100345.88;;;18.46;48.14
2549;BME280;1284;53.520;10.248;2023-04-22T07:15:51;100345.16;;;18.65;47.85
2549;BME280;1284;53.520;10.248;2023-04-22T07:18:17;100346.75;;;18.62;47.41
2549;BME280;1284;53.520;10.248;2023-04-22T07:20:42;100334.69;;;18.83;48.15
2549;BME280;1284;53.520;10.248;2023-04-22T07:23:08;100344.66;;;18.70;47.04
2549;BME280;1284;53.520;10.248;2023-04-22T07:25:36;100343.31;;;19.01;46.95
2549;BME280;1284;53.520;10.248;2023-04-22T07:28:01;100350.75;;;19.01;47.08
2549;BME280;1284;53.520;10.248;2023-04-22T07:30:27;100353.88;;;18.99;46.59
2549;BME280;1284;53.520;10.248;2023-04-22T07:32:52;100358.78;;;18.88;47.10
2549;BME280;1284;53.520;10.248;2023-04-22T07:35:18;100346.75;;;19.05;46.71
2549;BME280;1284;53.520;10.248;2023-04-22T07:37:43;100344.63;;;19.13;46.43
2549;BME280;1284;53.520;10.248;2023-04-22T07:40:11;100338.63;;;19.21;46.65
2549;BME280;1284;53.520;10.248;2023-04-22T07:42:38;100344.19;;;19.37;46.37
2549;BME280;1284;53.520;10.248;2023-04-22T07:45:05;100338.31;;;19.39;46.39
2549;BME280;1284;53.520;10.248;2023-04-22T07:47:31;100326.16;;;19.40;46.56
2549;BME280;1284;53.520;10.248;2023-04-22T07:49:56;100333.97;;;19.41;46.95
2549;BME280;1284;53.520;10.248;2023-04-22T07:52:21;100327.19;;;19.65;45.79
2549;BME280;1284;53.520;10.248;2023-04-22T07:54:47;100327.22;;;19.82;47.21
2549;BME280;1284;53.520;10.248;2023-04-22T07:57:12;100317.59;;;19.57;46.04
2549;BME280;1284;53.520;10.248;2023-04-22T07:59:38;100316.03;;;19.92;46.70
2549;BME280;1284;53.520;10.248;2023-04-22T08:02:03;100315.22;;;19.59;46.80
2549;BME280;1284;53.520;10.248;2023-04-22T08:04:29;100320.25;;;20.13;46.25
2549;BME280;1284;53.520;10.248;2023-04-22T08:06:54;100321.09;;;19.94;45.92
2549;BME280;1284;53.520;10.248;2023-04-22T08:09:20;100323.03;;;19.93;46.44
2549;BME280;1284;53.520;10.248;2023-04-22T08:11:45;100327.31;;;20.42;47.35
2549;BME280;1284;53.520;10.248;2023-04-22T08:14:11;100315.41;;;20.65;45.91
2549;BME280;1284;53.520;10.248;2023-04-22T08:16:38;100327.13;;;20.65;45.06
2549;BME280;1284;53.520;10.248;2023-04-22T08:19:03;100299.97;;;20.42;45.98
2549;BME280;1284;53.520;10.248;2023-04-22T08:21:29;100300.94;;;20.36;45.97
2549;BME280;1284;53.520;10.248;2023-04-22T08:23:55;100301.53;;;20.72;45.46
2549;BME280;1284;53.520;10.248;2023-04-22T08:26:21;100307.81;;;20.85;45.17
2549;BME280;1284;53.520;10.248;2023-04-22T08:28:46;100301.34;;;20.79;45.80
2549;BME280;1284;53.520;10.248;2023-04-22T08:31:12;100309.31;;;21.02;44.97
2549;BME280;1284;53.520;10.248;2023-04-22T08:33:39;100304.94;;;20.76;45.55
2549;BME280;1284;53.520;10.248;2023-04-22T08:36:06;100302.03;;;20.38;45.48
2549;BME280;1284;53.520;10.248;2023-04-22T08:38:32;100298.69;;;20.76;46.18
2549;BME280;1284;53.520;10.248;2023-04-22T08:40:58;100302.94;;;21.21;44.98
2549;BME280;1284;53.520;10.248;2023-04-22T08:43:24;100293.06;;;21.24;44.42
2549;BME280;1284;53.520;10.248;2023-04-22T08:45:50;100292.75;;;21.34;44.47
2549;BME280;1284;53.520;10.248;2023-04-22T08:48:17;100308.66;;;21.65;44.36
2549;BME280;1284;53.520;10.248;2023-04-22T08:50:43;100293.63;;;21.56;44.29
2549;BME280;1284;53.520;10.248;2023-04-22T08:53:08;100296.94;;;21.89;43.92
2549;BME280;1284;53.520;10.248;2023-04-22T08:55:34;100301.25;;;21.90;44.01
2549;BME280;1284;53.520;10.248;2023-04-22T08:58:01;100292.91;;;21.94;43.58
2549;BME280;1284;53.520;10.248;2023-04-22T09:00:29;100295.44;;;22.01;44.15
2549;BME280;1284;53.520;10.248;2023-04-22T09:02:57;100297.19;;;21.95;44.10
2549;BME280;1284;53.520;10.248;2023-04-22T09:05:25;100290.09;;;22.19;44.44
2549;BME280;1284;53.520;10.248;2023-04-22T09:07:52;100296.69;;;22.21;43.76
2549;BME280;1284;53.520;10.248;2023-04-22T09:10:18;100283.09;;;22.65;45.01
2549;BME280;1284;53.520;10.248;2023-04-22T09:12:45;100290.75;;;23.13;42.46
2549;BME280;1284;53.520;10.248;2023-04-22T09:15:11;100305.66;;;23.03;42.64
2549;BME280;1284;53.520;10.248;2023-04-22T09:17:36;100286.53;;;22.78;42.66
2549;BME280;1284;53.520;10.248;2023-04-22T09:20:05;100297.88;;;23.01;43.22
2549;BME280;1284;53.520;10.248;2023-04-22T09:22:45;100292.69;;;23.03;42.51
2549;BME280;1284;53.520;10.248;2023-04-22T09:25:15;100303.69;;;23.03;42.67
2549;BME280;1284;53.520;10.248;2023-04-22T09:27:41;100295.78;;;22.71;43.36
2549;BME280;1284;53.520;10.248;2023-04-22T09:30:08;100299.50;;;22.77;44.09
2549;BME280;1284;53.520;10.248;2023-04-22T09:32:34;100298.56;;;22.93;42.45
2549;BME280;1284;53.520;10.248;2023-04-22T09:34:59;100288.06;;;23.00;42.85
2549;BME280;1284;53.520;10.248;2023-04-22T09:37:26;100294.41;;;23.32;43.05
2549;BME280;1284;53.520;10.248;2023-04-22T09:39:53;100283.88;;;23.70;41.93
2549;BME280;1284;53.520;10.248;2023-04-22T09:42:20;100267.47;;;23.26;42.89
2549;BME280;1284;53.520;10.248;2023-04-22T09:44:47;100265.56;;;23.76;43.45
2549;BME280;1284;53.520;10.248;2023-04-22T09:47:13;100263.66;;;23.55;42.35
2549;BME280;1284;53.520;10.248;2023-04-22T09:49:38;100263.16;;;23.96;41.84
2549;BME280;1284;53.520;10.248;2023-04-22T09:52:04;100264.00;;;24.24;41.05
2549;BME280;1284;53.520;10.248;2023-04-22T09:54:30;100267.84;;;24.53;39.96
2549;BME280;1284;53.520;10.248;2023-04-22T09:56:56;100252.75;;;23.91;40.53
2549;BME280;1284;53.520;10.248;2023-04-22T09:59:24;100259.53;;;24.08;40.50
2549;BME280;1284;53.520;10.248;2023-04-22T10:01:52;100258.38;;;23.78;41.48
2549;BME280;1284;53.520;10.248;2023-04-22T10:04:18;100259.59;;;24.44;40.28
2549;BME280;1284;53.520;10.248;2023-04-22T10:06:48;100247.63;;;24.65;40.31
2549;BME280;1284;53.520;10.248;2023-04-22T10:09:18;100245.03;;;24.71;40.59
2549;BME280;1284;53.520;10.248;2023-04-22T10:11:45;100248.41;;;24.84;40.56
2549;BME280;1284;53.520;10.248;2023-04-22T10:14:11;100249.38;;;25.23;39.26
2549;BME280;1284;53.520;10.248;2023-04-22T10:16:39;100250.84;;;25.51;38.75
2549;BME280;1284;53.520;10.248;2023-04-22T10:19:06;100266.06;;;25.28;38.98
2549;BME280;1284;53.520;10.248;2023-04-22T10:21:33;100244.75;;;25.29;40.02
2549;BME280;1284;53.520;10.248;2023-04-22T10:23:59;100235.91;;;25.66;38.92
2549;BME280;1284;53.520;10.248;2023-04-22T10:26:38;100234.38;;;25.89;39.36
2549;BME280;1284;53.520;10.248;2023-04-22T10:29:12;100223.66;;;26.15;38.99
2549;BME280;1284;53.520;10.248;2023-04-22T10:31:42;100227.63;;;25.90;38.32
2549;BME280;1284;53.520;10.248;2023-04-22T10:34:09;100218.47;;;25.60;38.44
2549;BME280;1284;53.520;10.248;2023-04-22T10:36:51;100218.03;;;25.76;39.35
2549;BME280;1284;53.520;10.248;2023-04-22T10:39:17;100215.47;;;26.20;40.15
2549;BME280;1284;53.520;10.248;2023-04-22T10:41:49;100212.13;;;26.16;38.71
2549;BME280;1284;53.520;10.248;2023-04-22T10:44:15;100203.38;;;26.70;39.95
2549;BME280;1284;53.520;10.248;2023-04-22T10:49:21;100209.97;;;26.73;37.70
2549;BME280;1284;53.520;10.248;2023-04-22T10:51:58;100215.34;;;26.67;37.19
2549;BME280;1284;53.520;10.248;2023-04-22T10:57:09;100202.84;;;26.43;37.12
2549;BME280;1284;53.520;10.248;2023-04-22T10:59:50;100194.66;;;26.48;37.90
2549;BME280;1284;53.520;10.248;2023-04-22T11:02:17;100191.06;;;26.57;37.81
2549;BME280;1284;53.520;10.248;2023-04-22T11:04:42;100195.84;;;26.86;37.56
2549;BME280;1284;53.520;10.248;2023-04-22T11:07:16;100194.47;;;27.39;37.05
2549;BME280;1284;53.520;10.248;2023-04-22T11:10:07;100198.31;;;27.13;37.77
2549;BME280;1284;53.520;10.248;2023-04-22T11:15:15;100186.84;;;27.89;37.10
2549;BME280;1284;53.520;10.248;2023-04-22T11:17:43;100178.25;;;27.67;36.79
2549;BME280;1284;53.520;10.248;2023-04-22T11:20:09;100171.94;;;27.46;36.95
2549;BME280;1284;53.520;10.248;2023-04-22T11:22:37;100171.06;;;27.95;36.28
2549;BME280;1284;53.520;10.248;2023-04-22T11:25:04;100162.41;;;27.67;37.23
2549;BME280;1284;53.520;10.248;2023-04-22T11:27:30;100165.31;;;28.19;36.48
2549;BME280;1284;53.520;10.248;2023-04-22T11:30:06;100167.66;;;28.26;35.55
2549;BME280;1284;53.520;10.248;2023-04-22T11:32:33;100166.91;;;28.25;35.67
2549;BME280;1284;53.520;10.248;2023-04-22T11:35:02;100150.84;;;27.89;36.13
2549;BME280;1284;53.520;10.248;2023-04-22T11:37:29;100153.34;;;28.07;36.47
2549;BME280;1284;53.520;10.248;2023-04-22T11:40:01;100158.78;;;28.47;36.20
2549;BME280;1284;53.520;10.248;2023-04-22T11:42:28;100157.66;;;28.34;35.44
2549;BME280;1284;53.520;10.248;2023-04-22T11:44:54;100160.28;;;27.97;36.06
2549;BME280;1284;53.520;10.248;2023-04-22T11:47:19;100146.69;;;27.59;36.44
2549;BME280;1284;53.520;10.248;2023-04-22T11:49:59;100148.56;;;27.67;36.55
2549;BME280;1284;53.520;10.248;2023-04-22T11:52:55;100148.00;;;28.04;35.87
2549;BME280;1284;53.520;10.248;2023-04-22T11:57:54;100142.47;;;26.94;36.74
2549;BME280;1284;53.520;10.248;2023-04-22T12:00:21;100131.94;;;27.13;36.96
2549;BME280;1284;53.520;10.248;2023-04-22T12:02:57;100131.00;;;27.50;37.04
2549;BME280;1284;53.520;10.248;2023-04-22T12:08:10;100133.88;;;27.82;35.96
2549;BME280;1284;53.520;10.248;2023-04-22T12:10:43;100121.06;;;27.84;35.81
2549;BME280;1284;53.520;10.248;2023-04-22T12:13:16;100130.47;;;27.92;36.26
2549;BME280;1284;53.520;10.248;2023-04-22T12:15:42;100121.34;;;27.86;35.52
2549;BME280;1284;53.520;10.248;2023-04-22T12:18:08;100119.09;;;28.05;35.91
2549;BME280;1284;53.520;10.248;2023-04-22T12:20:43;100124.19;;;28.12;35.73
2549;BME280;1284;53.520;10.248;2023-04-22T12:23:13;100115.69;;;27.75;35.94
2549;BME280;1284;53.520;10.248;2023-04-22T12:25:40;100120.88;;;27.47;35.67
2549;BME280;1284;53.520;10.248;2023-04-22T12:28:06;100114.38;;;27.71;37.07
2549;BME280;1284;53.520;10.248;2023-04-22T12:30:31;100107.84;;;26.99;36.68
2549;BME280;1284;53.520;10.248;2023-04-22T12:32:57;100117.19;;;27.36;35.99
2549;BME280;1284;53.520;10.248;2023-04-22T12:35:25;100110.16;;;27.35;36.49
2549;BME280;1284;53.520;10.248;2023-04-22T12:37:51;100097.63;;;28.00;36.36
2549;BME280;1284;53.520;10.248;2023-04-22T12:40:16;100100.06;;;28.18;35.88
2549;BME280;1284;53.520;10.248;2023-04-22T12:42:42;100102.94;;;28.29;35.01
2549;BME280;1284;53.520;10.248;2023-04-22T12:45:08;100089.13;;;28.34;35.37
2549;BME280;1284;53.520;10.248;2023-04-22T12:47:33;100081.31;;;28.07;36.13
2549;BME280;1284;53.520;10.248;2023-04-22T12:49:59;100094.34;;;28.27;35.49
2549;BME280;1284;53.520;10.248;2023-04-22T12:52:25;100093.31;;;28.24;35.22
2549;BME280;1284;53.520;10.248;2023-04-22T12:54:51;100087.63;;;28.08;35.21
2549;BME280;1284;53.520;10.248;2023-04-22T12:57:16;100083.06;;;27.85;35.46
2549;BME280;1284;53.520;10.248;2023-04-22T12:59:42;100064.91;;;27.58;35.09
2549;BME280;1284;53.520;10.248;2023-04-22T13:02:09;100055.63;;;27.61;34.92
2549;BME280;1284;53.520;10.248;2023-04-22T13:04:34;100057.16;;;27.88;35.33
2549;BME280;1284;53.520;10.248;2023-04-22T13:07:00;100062.25;;;27.49;36.34
2549;BME280;1284;53.520;10.248;2023-04-22T13:09:26;100059.50;;;27.69;36.86
2549;BME280;1284;53.520;10.248;2023-04-22T13:11:51;100052.91;;;27.66;36.23
2549;BME280;1284;53.520;10.248;2023-04-22T13:14:17;100053.09;;;27.83;35.82